Aérodrome :
LOGIN :

S'inscrire | Disclaimer

   EN    FR    IT 

 










Légende :    VFR   VFR Marginal   IFR   IFR Intensif   IFR Très Intensif
Visi : 
Plafond : 
>= 8 km
>= 3000ft
5 à 8 km
1000 à 3000 ft
1500m à 5 km
500 à 1000 ft
800 à 1500m
200 à 500 ft
< 800m
< 200 ft
Symboles :   Orages  Brouillard  Fortes neiges  Fortes précipitations  Vent > 20 kt
SIGMETs :   Divers  Orages  Givrage  Turbulence  Onde Orograph.  Cendres Volcan.







- Altitude de l'aérodrome : 384 ft
- Code IATA : ESU


GMMI - Mogador Int.

METARs EXPIRÉS :
  • 221800Z 36010KT 8000 NSC 25/18 Q1015 NOSIG
  • 221700Z 36014KT 8000 NSC 26/18 Q1015 NOSIG

TAF TAF GMMI
Valide du 22 à 18h jusqu'au 24 à 00h UTC


221700Z 2218/2324 34014KT 8000 NSC
Pas de NOTAMs connus pour ce terrain.
1 SIGMET publié pour la FIR Casablanca (GMMM) :
 
Orages noyés dans la masse
GMMM SIGMET 05 VALID 221800/222200 GMMC
GMMM CASABLANCA FIR EMBD TS OBS E OF LINE N3140 W00319 - N3152 W0061 6 - N3448 W00409 - N3448 W00151 TOP FL530 MOV NE NC=



MET'MAP, la Météo Aéronautique d'un coup d'oeil ! - Copyright ORBIFLY Décembre 2007 - Disclaimer

ORBIFLY MET'MAP TEAM :

Programmation & Développement : Alexandra Zaïnal
Conception & Développement : Baudouin d'Aumeries
Co-Programmation & Développement : Marc-Olivier Méhu
Soutien technique & logistique : Manuel Goepfert

Contact : metmap@orbifly.com




SOURCES & CREDITS :

   NOAA